sensor_id;sensor_type;location;lat;lon;timestamp;P1;durP1;ratioP1;P2;durP2;ratioP2
19854;SDS011;10088;47.946;2.532;2022-07-30T00:00:13;5.97;;;2.73;;
19854;SDS011;10088;47.946;2.532;2022-07-30T00:02:40;6.70;;;2.13;;
19854;SDS011;10088;47.946;2.532;2022-07-30T00:05:06;7.67;;;2.40;;
19854;SDS011;10088;47.946;2.532;2022-07-30T00:07:31;2.77;;;2.40;;
19854;SDS011;10088;47.946;2.532;2022-07-30T00:09:56;3.83;;;2.57;;
19854;SDS011;10088;47.946;2.532;2022-07-30T00:12:22;6.10;;;2.77;;
19854;SDS011;10088;47.946;2.532;2022-07-30T00:14:47;10.63;;;3.00;;
19854;SDS011;10088;47.946;2.532;2022-07-30T00:17:12;5.23;;;2.40;;
19854;SDS011;10088;47.946;2.532;2022-07-30T00:19:37;4.00;;;2.80;;
19854;SDS011;10088;47.946;2.532;2022-07-30T00:22:03;6.40;;;3.10;;
19854;SDS011;10088;47.946;2.532;2022-07-30T00:24:28;3.17;;;2.87;;
19854;SDS011;10088;47.946;2.532;2022-07-30T00:26:53;4.27;;;2.60;;
19854;SDS011;10088;47.946;2.532;2022-07-30T00:29:19;8.00;;;2.63;;
19854;SDS011;10088;47.946;2.532;2022-07-30T00:31:44;4.67;;;2.13;;
19854;SDS011;10088;47.946;2.532;2022-07-30T00:34:09;6.23;;;2.40;;
19854;SDS011;10088;47.946;2.532;2022-07-30T00:36:36;4.00;;;2.23;;
19854;SDS011;10088;47.946;2.532;2022-07-30T00:39:02;3.43;;;2.60;;
19854;SDS011;10088;47.946;2.532;2022-07-30T00:41:27;5.50;;;2.40;;
19854;SDS011;10088;47.946;2.532;2022-07-30T00:43:53;3.10;;;2.10;;
19854;SDS011;10088;47.946;2.532;2022-07-30T00:46:18;2.47;;;1.90;;
19854;SDS011;10088;47.946;2.532;2022-07-30T00:48:44;7.33;;;2.00;;
19854;SDS011;10088;47.946;2.532;2022-07-30T00:51:09;3.03;;;1.90;;
19854;SDS011;10088;47.946;2.532;2022-07-30T00:53:34;2.70;;;2.23;;
19854;SDS011;10088;47.946;2.532;2022-07-30T00:56:00;5.70;;;2.27;;
19854;SDS011;10088;47.946;2.532;2022-07-30T00:58:25;3.37;;;1.80;;
19854;SDS011;10088;47.946;2.532;2022-07-30T01:00:51;2.60;;;1.83;;
19854;SDS011;10088;47.946;2.532;2022-07-30T01:03:16;4.10;;;2.07;;
19854;SDS011;10088;47.946;2.532;2022-07-30T01:05:41;4.73;;;1.90;;
19854;SDS011;10088;47.946;2.532;2022-07-30T01:08:07;2.30;;;2.10;;
19854;SDS011;10088;47.946;2.532;2022-07-30T01:10:32;7.07;;;2.17;;
19854;SDS011;10088;47.946;2.532;2022-07-30T01:12:57;4.70;;;2.13;;
19854;SDS011;10088;47.946;2.532;2022-07-30T01:15:23;4.43;;;2.20;;
19854;SDS011;10088;47.946;2.532;2022-07-30T01:17:49;6.37;;;1.90;;
19854;SDS011;10088;47.946;2.532;2022-07-30T01:20:17;4.50;;;1.97;;
19854;SDS011;10088;47.946;2.532;2022-07-30T01:22:54;3.73;;;2.00;;
19854;SDS011;10088;47.946;2.532;2022-07-30T01:27:51;4.83;;;2.10;;
19854;SDS011;10088;47.946;2.532;2022-07-30T01:30:19;5.63;;;2.23;;
19854;SDS011;10088;47.946;2.532;2022-07-30T01:32:46;3.33;;;2.27;;
19854;SDS011;10088;47.946;2.532;2022-07-30T01:35:12;3.40;;;1.93;;
19854;SDS011;10088;47.946;2.532;2022-07-30T01:37:38;3.83;;;1.90;;
19854;SDS011;10088;47.946;2.532;2022-07-30T01:40:05;4.27;;;2.20;;
19854;SDS011;10088;47.946;2.532;2022-07-30T01:42:31;3.63;;;1.87;;
19854;SDS011;10088;47.946;2.532;2022-07-30T01:44:57;3.00;;;1.70;;
19854;SDS011;10088;47.946;2.532;2022-07-30T01:47:22;4.50;;;1.80;;
19854;SDS011;10088;47.946;2.532;2022-07-30T01:49:49;2.70;;;1.60;;
19854;SDS011;10088;47.946;2.532;2022-07-30T01:52:16;2.77;;;1.63;;
19854;SDS011;10088;47.946;2.532;2022-07-30T01:54:43;3.47;;;1.60;;
19854;SDS011;10088;47.946;2.532;2022-07-30T01:57:08;4.03;;;1.80;;
19854;SDS011;10088;47.946;2.532;2022-07-30T01:59:34;2.90;;;1.63;;
19854;SDS011;10088;47.946;2.532;2022-07-30T02:02:01;4.37;;;1.43;;
19854;SDS011;10088;47.946;2.532;2022-07-30T02:04:27;2.83;;;1.73;;
19854;SDS011;10088;47.946;2.532;2022-07-30T02:07:00;2.07;;;1.73;;
19854;SDS011;10088;47.946;2.532;2022-07-30T02:09:34;1.77;;;1.60;;
19854;SDS011;10088;47.946;2.532;2022-07-30T02:12:00;5.80;;;1.60;;
19854;SDS011;10088;47.946;2.532;2022-07-30T02:14:45;2.53;;;1.53;;
19854;SDS011;10088;47.946;2.532;2022-07-30T02:17:12;4.00;;;1.90;;
19854;SDS011;10088;47.946;2.532;2022-07-30T02:19:38;6.83;;;1.70;;
19854;SDS011;10088;47.946;2.532;2022-07-30T02:22:05;2.70;;;1.70;;
19854;SDS011;10088;47.946;2.532;2022-07-30T02:24:32;3.37;;;1.53;;
19854;SDS011;10088;47.946;2.532;2022-07-30T02:27:00;2.30;;;1.97;;
19854;SDS011;10088;47.946;2.532;2022-07-30T02:29:26;3.77;;;1.63;;
19854;SDS011;10088;47.946;2.532;2022-07-30T02:31:52;2.87;;;1.87;;
19854;SDS011;10088;47.946;2.532;2022-07-30T02:34:19;4.93;;;1.60;;
19854;SDS011;10088;47.946;2.532;2022-07-30T02:36:45;5.37;;;1.73;;
19854;SDS011;10088;47.946;2.532;2022-07-30T02:39:11;3.73;;;1.70;;
19854;SDS011;10088;47.946;2.532;2022-07-30T02:41:37;2.07;;;1.70;;
19854;SDS011;10088;47.946;2.532;2022-07-30T02:44:04;3.37;;;1.70;;
19854;SDS011;10088;47.946;2.532;2022-07-30T02:46:29;2.80;;;1.70;;
19854;SDS011;10088;47.946;2.532;2022-07-30T02:48:56;3.53;;;2.17;;
19854;SDS011;10088;47.946;2.532;2022-07-30T02:51:22;3.00;;;1.97;;
19854;SDS011;10088;47.946;2.532;2022-07-30T02:53:48;3.43;;;1.90;;
19854;SDS011;10088;47.946;2.532;2022-07-30T02:56:14;3.30;;;1.87;;
19854;SDS011;10088;47.946;2.532;2022-07-30T02:58:42;3.07;;;1.80;;
19854;SDS011;10088;47.946;2.532;2022-07-30T03:01:08;3.37;;;1.87;;
19854;SDS011;10088;47.946;2.532;2022-07-30T03:03:33;2.37;;;1.93;;
19854;SDS011;10088;47.946;2.532;2022-07-30T03:05:59;2.47;;;1.70;;
19854;SDS011;10088;47.946;2.532;2022-07-30T03:08:26;4.67;;;1.83;;
19854;SDS011;10088;47.946;2.532;2022-07-30T03:10:52;2.93;;;2.40;;
19854;SDS011;10088;47.946;2.532;2022-07-30T03:13:19;2.70;;;1.60;;
19854;SDS011;10088;47.946;2.532;2022-07-30T03:15:45;2.60;;;2.40;;
19854;SDS011;10088;47.946;2.532;2022-07-30T03:18:13;3.23;;;1.90;;
19854;SDS011;10088;47.946;2.532;2022-07-30T03:20:39;5.13;;;2.43;;
19854;SDS011;10088;47.946;2.532;2022-07-30T03:23:05;4.37;;;2.40;;
19854;SDS011;10088;47.946;2.532;2022-07-30T03:25:31;3.63;;;1.97;;
19854;SDS011;10088;47.946;2.532;2022-07-30T03:27:57;2.90;;;1.87;;
19854;SDS011;10088;47.946;2.532;2022-07-30T03:30:23;3.60;;;1.87;;
19854;SDS011;10088;47.946;2.532;2022-07-30T03:32:49;4.10;;;2.03;;
19854;SDS011;10088;47.946;2.532;2022-07-30T03:35:15;4.70;;;2.07;;
19854;SDS011;10088;47.946;2.532;2022-07-30T03:37:41;3.60;;;1.90;;
19854;SDS011;10088;47.946;2.532;2022-07-30T03:40:07;3.23;;;2.40;;
19854;SDS011;10088;47.946;2.532;2022-07-30T03:42:33;5.17;;;2.27;;
19854;SDS011;10088;47.946;2.532;2022-07-30T03:45:02;3.63;;;2.40;;
19854;SDS011;10088;47.946;2.532;2022-07-30T03:47:29;3.87;;;2.03;;
19854;SDS011;10088;47.946;2.532;2022-07-30T03:49:56;3.90;;;2.00;;
19854;SDS011;10088;47.946;2.532;2022-07-30T03:52:22;3.57;;;2.47;;
19854;SDS011;10088;47.946;2.532;2022-07-30T03:54:47;3.67;;;2.10;;
19854;SDS011;10088;47.946;2.532;2022-07-30T03:57:13;3.47;;;2.27;;
19854;SDS011;10088;47.946;2.532;2022-07-30T03:59:38;4.40;;;2.03;;
19854;SDS011;10088;47.946;2.532;2022-07-30T04:02:04;3.17;;;2.10;;
19854;SDS011;10088;47.946;2.532;2022-07-30T04:04:29;3.10;;;2.37;;
19854;SDS011;10088;47.946;2.532;2022-07-30T04:06:55;6.40;;;2.43;;
19854;SDS011;10088;47.946;2.532;2022-07-30T04:09:21;3.37;;;2.57;;
19854;SDS011;10088;47.946;2.532;2022-07-30T04:11:47;5.97;;;2.10;;
19854;SDS011;10088;47.946;2.532;2022-07-30T04:14:12;4.83;;;2.37;;
19854;SDS011;10088;47.946;2.532;2022-07-30T04:19:17;4.90;;;2.10;;
19854;SDS011;10088;47.946;2.532;2022-07-30T04:21:43;5.70;;;2.20;;
19854;SDS011;10088;47.946;2.532;2022-07-30T04:24:10;5.53;;;2.50;;
19854;SDS011;10088;47.946;2.532;2022-07-30T04:26:36;5.03;;;2.47;;
19854;SDS011;10088;47.946;2.532;2022-07-30T04:29:03;4.70;;;2.47;;
19854;SDS011;10088;47.946;2.532;2022-07-30T04:31:28;5.43;;;2.30;;
19854;SDS011;10088;47.946;2.532;2022-07-30T04:33:59;3.97;;;2.80;;
19854;SDS011;10088;47.946;2.532;2022-07-30T04:36:24;5.33;;;2.80;;
19854;SDS011;10088;47.946;2.532;2022-07-30T04:38:49;4.53;;;2.23;;
19854;SDS011;10088;47.946;2.532;2022-07-30T04:41:15;6.47;;;2.60;;
19854;SDS011;10088;47.946;2.532;2022-07-30T04:43:40;3.80;;;2.60;;
19854;SDS011;10088;47.946;2.532;2022-07-30T04:46:05;4.27;;;2.40;;
19854;SDS011;10088;47.946;2.532;2022-07-30T04:48:30;3.83;;;2.13;;
19854;SDS011;10088;47.946;2.532;2022-07-30T04:50:56;3.47;;;2.60;;
19854;SDS011;10088;47.946;2.532;2022-07-30T04:53:23;3.57;;;2.23;;
19854;SDS011;10088;47.946;2.532;2022-07-30T04:55:49;7.60;;;2.70;;
19854;SDS011;10088;47.946;2.532;2022-07-30T04:58:15;4.43;;;2.23;;
19854;SDS011;10088;47.946;2.532;2022-07-30T05:00:42;6.47;;;2.40;;
19854;SDS011;10088;47.946;2.532;2022-07-30T05:03:10;4.67;;;2.63;;
19854;SDS011;10088;47.946;2.532;2022-07-30T05:05:36;3.77;;;2.63;;
19854;SDS011;10088;47.946;2.532;2022-07-30T05:08:02;5.70;;;2.50;;
19854;SDS011;10088;47.946;2.532;2022-07-30T05:10:28;4.37;;;2.53;;
19854;SDS011;10088;47.946;2.532;2022-07-30T05:12:53;6.47;;;2.50;;
19854;SDS011;10088;47.946;2.532;2022-07-30T05:15:18;2.37;;;2.13;;
19854;SDS011;10088;47.946;2.532;2022-07-30T05:17:44;5.20;;;2.40;;
19854;SDS011;10088;47.946;2.532;2022-07-30T05:20:09;6.27;;;2.60;;
19854;SDS011;10088;47.946;2.532;2022-07-30T05:22:35;4.83;;;2.53;;
19854;SDS011;10088;47.946;2.532;2022-07-30T05:25:00;4.97;;;2.60;;
19854;SDS011;10088;47.946;2.532;2022-07-30T05:27:25;4.87;;;2.43;;
19854;SDS011;10088;47.946;2.532;2022-07-30T05:29:50;2.63;;;2.43;;
19854;SDS011;10088;47.946;2.532;2022-07-30T05:32:16;3.93;;;2.47;;
19854;SDS011;10088;47.946;2.532;2022-07-30T05:34:41;10.37;;;3.10;;
19854;SDS011;10088;47.946;2.532;2022-07-30T05:37:07;4.83;;;2.73;;
19854;SDS011;10088;47.946;2.532;2022-07-30T05:39:32;3.70;;;2.50;;
19854;SDS011;10088;47.946;2.532;2022-07-30T05:41:58;4.50;;;2.40;;
19854;SDS011;10088;47.946;2.532;2022-07-30T05:44:23;5.50;;;2.47;;
19854;SDS011;10088;47.946;2.532;2022-07-30T05:46:48;6.23;;;2.00;;
19854;SDS011;10088;47.946;2.532;2022-07-30T05:49:13;2.83;;;2.13;;
19854;SDS011;10088;47.946;2.532;2022-07-30T05:51:39;5.50;;;2.20;;
19854;SDS011;10088;47.946;2.532;2022-07-30T05:54:05;3.20;;;2.03;;
19854;SDS011;10088;47.946;2.532;2022-07-30T05:56:30;3.40;;;2.00;;
19854;SDS011;10088;47.946;2.532;2022-07-30T05:58:55;3.77;;;2.27;;
19854;SDS011;10088;47.946;2.532;2022-07-30T06:01:21;4.10;;;2.00;;
19854;SDS011;10088;47.946;2.532;2022-07-30T06:03:46;3.43;;;2.20;;
19854;SDS011;10088;47.946;2.532;2022-07-30T06:06:11;3.47;;;2.20;;
19854;SDS011;10088;47.946;2.532;2022-07-30T06:08:37;6.00;;;2.43;;
19854;SDS011;10088;47.946;2.532;2022-07-30T06:11:02;2.50;;;1.73;;
19854;SDS011;10088;47.946;2.532;2022-07-30T06:13:28;3.87;;;2.13;;
19854;SDS011;10088;47.946;2.532;2022-07-30T06:15:53;3.13;;;2.10;;
19854;SDS011;10088;47.946;2.532;2022-07-30T06:18:18;4.43;;;2.10;;
19854;SDS011;10088;47.946;2.532;2022-07-30T06:20:44;2.50;;;2.20;;
19854;SDS011;10088;47.946;2.532;2022-07-30T06:23:09;4.03;;;2.03;;
19854;SDS011;10088;47.946;2.532;2022-07-30T06:25:34;4.67;;;2.10;;
19854;SDS011;10088;47.946;2.532;2022-07-30T06:28:00;2.83;;;1.90;;
19854;SDS011;10088;47.946;2.532;2022-07-30T06:30:25;8.03;;;2.47;;
19854;SDS011;10088;47.946;2.532;2022-07-30T06:32:50;2.90;;;1.80;;
19854;SDS011;10088;47.946;2.532;2022-07-30T06:35:15;3.23;;;1.93;;
19854;SDS011;10088;47.946;2.532;2022-07-30T06:37:41;4.50;;;2.10;;
19854;SDS011;10088;47.946;2.532;2022-07-30T06:40:09;5.17;;;1.90;;
19854;SDS011;10088;47.946;2.532;2022-07-30T06:42:35;8.53;;;1.70;;
19854;SDS011;10088;47.946;2.532;2022-07-30T06:45:00;4.77;;;2.20;;
19854;SDS011;10088;47.946;2.532;2022-07-30T06:47:25;2.60;;;1.77;;
19854;SDS011;10088;47.946;2.532;2022-07-30T06:49:53;4.90;;;1.67;;
19854;SDS011;10088;47.946;2.532;2022-07-30T06:52:18;2.20;;;1.57;;
19854;SDS011;10088;47.946;2.532;2022-07-30T06:54:43;3.57;;;1.50;;
19854;SDS011;10088;47.946;2.532;2022-07-30T06:57:10;3.70;;;1.87;;
19854;SDS011;10088;47.946;2.532;2022-07-30T06:59:35;4.23;;;1.80;;
19854;SDS011;10088;47.946;2.532;2022-07-30T07:02:01;2.83;;;1.67;;
19854;SDS011;10088;47.946;2.532;2022-07-30T07:04:26;3.87;;;1.53;;
19854;SDS011;10088;47.946;2.532;2022-07-30T07:06:51;2.53;;;1.50;;
19854;SDS011;10088;47.946;2.532;2022-07-30T07:09:17;3.17;;;1.70;;
19854;SDS011;10088;47.946;2.532;2022-07-30T07:11:42;3.67;;;1.70;;
19854;SDS011;10088;47.946;2.532;2022-07-30T07:14:07;2.37;;;1.60;;
19854;SDS011;10088;47.946;2.532;2022-07-30T07:16:33;2.87;;;1.53;;
19854;SDS011;10088;47.946;2.532;2022-07-30T07:18:58;4.77;;;1.60;;
19854;SDS011;10088;47.946;2.532;2022-07-30T07:21:23;2.83;;;1.30;;
19854;SDS011;10088;47.946;2.532;2022-07-30T07:23:48;7.27;;;1.67;;
19854;SDS011;10088;47.946;2.532;2022-07-30T07:26:14;4.57;;;1.60;;
19854;SDS011;10088;47.946;2.532;2022-07-30T07:28:40;3.17;;;1.67;;
19854;SDS011;10088;47.946;2.532;2022-07-30T07:31:06;5.10;;;1.70;;
19854;SDS011;10088;47.946;2.532;2022-07-30T07:33:31;4.73;;;1.80;;
19854;SDS011;10088;47.946;2.532;2022-07-30T07:35:56;5.63;;;1.60;;
19854;SDS011;10088;47.946;2.532;2022-07-30T07:38:22;4.83;;;1.50;;
19854;SDS011;10088;47.946;2.532;2022-07-30T07:40:47;4.00;;;1.47;;
19854;SDS011;10088;47.946;2.532;2022-07-30T07:43:13;8.00;;;1.60;;
19854;SDS011;10088;47.946;2.532;2022-07-30T07:45:39;2.70;;;1.30;;
19854;SDS011;10088;47.946;2.532;2022-07-30T07:48:04;3.03;;;1.57;;
19854;SDS011;10088;47.946;2.532;2022-07-30T07:50:29;4.23;;;1.30;;
19854;SDS011;10088;47.946;2.532;2022-07-30T07:52:55;4.77;;;1.50;;
19854;SDS011;10088;47.946;2.532;2022-07-30T07:55:20;3.03;;;1.50;;
19854;SDS011;10088;47.946;2.532;2022-07-30T07:57:45;3.53;;;1.80;;
19854;SDS011;10088;47.946;2.532;2022-07-30T08:00:12;3.58;;;1.38;;
19854;SDS011;10088;47.946;2.532;2022-07-30T08:02:41;5.28;;;1.50;;
19854;SDS011;10088;47.946;2.532;2022-07-30T08:05:07;2.77;;;1.40;;
19854;SDS011;10088;47.946;2.532;2022-07-30T08:07:32;2.80;;;1.38;;
19854;SDS011;10088;47.946;2.532;2022-07-30T08:09:58;8.20;;;1.77;;
19854;SDS011;10088;47.946;2.532;2022-07-30T08:12:23;6.72;;;1.65;;
19854;SDS011;10088;47.946;2.532;2022-07-30T08:14:49;3.45;;;1.35;;
19854;SDS011;10088;47.946;2.532;2022-07-30T08:17:14;3.65;;;1.50;;
19854;SDS011;10088;47.946;2.532;2022-07-30T08:19:39;2.45;;;1.52;;
19854;SDS011;10088;47.946;2.532;2022-07-30T08:22:05;6.03;;;1.40;;
19854;SDS011;10088;47.946;2.532;2022-07-30T08:24:30;3.30;;;1.60;;
19854;SDS011;10088;47.946;2.532;2022-07-30T08:26:55;5.75;;;1.70;;
19854;SDS011;10088;47.946;2.532;2022-07-30T08:29:21;4.18;;;1.45;;
19854;SDS011;10088;47.946;2.532;2022-07-30T08:31:46;3.17;;;1.92;;
19854;SDS011;10088;47.946;2.532;2022-07-30T08:34:11;2.25;;;1.42;;
19854;SDS011;10088;47.946;2.532;2022-07-30T08:36:37;3.05;;;1.70;;
19854;SDS011;10088;47.946;2.532;2022-07-30T08:39:02;7.13;;;1.45;;
19854;SDS011;10088;47.946;2.532;2022-07-30T08:41:28;5.60;;;1.52;;
19854;SDS011;10088;47.946;2.532;2022-07-30T08:43:53;2.90;;;1.50;;
19854;SDS011;10088;47.946;2.532;2022-07-30T08:46:19;3.30;;;1.75;;
19854;SDS011;10088;47.946;2.532;2022-07-30T08:48:46;3.47;;;1.50;;
19854;SDS011;10088;47.946;2.532;2022-07-30T08:51:12;3.60;;;1.60;;
19854;SDS011;10088;47.946;2.532;2022-07-30T08:53:39;3.38;;;1.80;;
19854;SDS011;10088;47.946;2.532;2022-07-30T08:56:05;3.10;;;1.63;;
19854;SDS011;10088;47.946;2.532;2022-07-30T08:58:32;2.72;;;1.40;;
19854;SDS011;10088;47.946;2.532;2022-07-30T09:00:59;3.33;;;1.30;;
19854;SDS011;10088;47.946;2.532;2022-07-30T09:03:24;1.75;;;1.10;;
19854;SDS011;10088;47.946;2.532;2022-07-30T09:05:49;2.50;;;1.30;;
19854;SDS011;10088;47.946;2.532;2022-07-30T09:08:15;2.63;;;1.70;;
19854;SDS011;10088;47.946;2.532;2022-07-30T09:10:40;2.97;;;1.33;;
19854;SDS011;10088;47.946;2.532;2022-07-30T09:13:21;5.50;;;1.60;;
19854;SDS011;10088;47.946;2.532;2022-07-30T09:15:46;3.00;;;1.40;;
19854;SDS011;10088;47.946;2.532;2022-07-30T09:18:12;2.20;;;1.30;;
19854;SDS011;10088;47.946;2.532;2022-07-30T09:20:38;4.72;;;1.52;;
19854;SDS011;10088;47.946;2.532;2022-07-30T09:23:04;4.78;;;1.25;;
19854;SDS011;10088;47.946;2.532;2022-07-30T09:28:02;4.55;;;1.20;;
19854;SDS011;10088;47.946;2.532;2022-07-30T09:30:30;2.45;;;1.30;;
19854;SDS011;10088;47.946;2.532;2022-07-30T09:33:06;3.33;;;1.10;;
19854;SDS011;10088;47.946;2.532;2022-07-30T09:35:31;3.38;;;1.15;;
19854;SDS011;10088;47.946;2.532;2022-07-30T09:37:57;1.73;;;1.30;;
19854;SDS011;10088;47.946;2.532;2022-07-30T09:40:23;2.38;;;1.15;;
19854;SDS011;10088;47.946;2.532;2022-07-30T09:42:49;3.40;;;1.30;;
19854;SDS011;10088;47.946;2.532;2022-07-30T09:45:25;3.40;;;1.17;;
19854;SDS011;10088;47.946;2.532;2022-07-30T09:47:50;1.55;;;0.93;;
19854;SDS011;10088;47.946;2.532;2022-07-30T09:50:16;2.25;;;1.35;;
19854;SDS011;10088;47.946;2.532;2022-07-30T09:52:42;2.35;;;1.17;;
19854;SDS011;10088;47.946;2.532;2022-07-30T09:55:07;2.83;;;1.40;;
19854;SDS011;10088;47.946;2.532;2022-07-30T09:57:33;5.28;;;1.40;;
19854;SDS011;10088;47.946;2.532;2022-07-30T10:00:14;3.85;;;1.25;;
19854;SDS011;10088;47.946;2.532;2022-07-30T10:02:40;5.63;;;1.35;;
19854;SDS011;10088;47.946;2.532;2022-07-30T10:05:09;4.40;;;1.20;;
19854;SDS011;10088;47.946;2.532;2022-07-30T10:07:35;3.03;;;1.10;;
19854;SDS011;10088;47.946;2.532;2022-07-30T10:10:00;2.78;;;0.90;;
19854;SDS011;10088;47.946;2.532;2022-07-30T10:12:26;2.33;;;1.13;;
19854;SDS011;10088;47.946;2.532;2022-07-30T10:14:52;6.05;;;1.20;;
19854;SDS011;10088;47.946;2.532;2022-07-30T10:17:18;1.83;;;0.98;;
19854;SDS011;10088;47.946;2.532;2022-07-30T10:19:43;5.07;;;0.90;;
19854;SDS011;10088;47.946;2.532;2022-07-30T10:22:09;2.53;;;1.05;;
19854;SDS011;10088;47.946;2.532;2022-07-30T10:24:34;5.57;;;1.20;;
19854;SDS011;10088;47.946;2.532;2022-07-30T10:27:00;3.72;;;1.10;;
19854;SDS011;10088;47.946;2.532;2022-07-30T10:29:26;2.10;;;1.25;;
19854;SDS011;10088;47.946;2.532;2022-07-30T10:31:51;1.58;;;1.00;;
19854;SDS011;10088;47.946;2.532;2022-07-30T10:34:17;3.90;;;1.33;;
19854;SDS011;10088;47.946;2.532;2022-07-30T10:36:47;6.63;;;1.10;;
19854;SDS011;10088;47.946;2.532;2022-07-30T10:39:14;4.65;;;1.10;;
19854;SDS011;10088;47.946;2.532;2022-07-30T10:49:21;3.97;;;0.95;;
19854;SDS011;10088;47.946;2.532;2022-07-30T10:51:48;2.13;;;1.05;;
19854;SDS011;10088;47.946;2.532;2022-07-30T10:59:46;3.90;;;1.00;;
19854;SDS011;10088;47.946;2.532;2022-07-30T11:02:15;1.13;;;0.90;;
19854;SDS011;10088;47.946;2.532;2022-07-30T11:04:41;2.60;;;0.90;;
19854;SDS011;10088;47.946;2.532;2022-07-30T11:09:54;3.80;;;0.87;;
19854;SDS011;10088;47.946;2.532;2022-07-30T11:15:15;2.70;;;1.00;;
19854;SDS011;10088;47.946;2.532;2022-07-30T11:20:25;4.53;;;1.00;;
19854;SDS011;10088;47.946;2.532;2022-07-30T11:22:50;2.80;;;0.90;;
19854;SDS011;10088;47.946;2.532;2022-07-30T11:27:45;3.63;;;0.83;;
19854;SDS011;10088;47.946;2.532;2022-07-30T11:32:40;4.90;;;0.90;;
19854;SDS011;10088;47.946;2.532;2022-07-30T11:35:12;3.83;;;1.17;;
19854;SDS011;10088;47.946;2.532;2022-07-30T11:38:00;2.40;;;0.90;;
19854;SDS011;10088;47.946;2.532;2022-07-30T11:40:25;6.00;;;1.10;;
19854;SDS011;10088;47.946;2.532;2022-07-30T11:42:51;1.00;;;0.77;;
19854;SDS011;10088;47.946;2.532;2022-07-30T11:47:45;2.90;;;1.00;;
19854;SDS011;10088;47.946;2.532;2022-07-30T11:52:52;3.50;;;1.10;;
19854;SDS011;10088;47.946;2.532;2022-07-30T11:55:25;2.30;;;0.93;;
19854;SDS011;10088;47.946;2.532;2022-07-30T11:57:51;1.57;;;0.93;;
19854;SDS011;10088;47.946;2.532;2022-07-30T12:00:17;1.67;;;0.77;;
19854;SDS011;10088;47.946;2.532;2022-07-30T12:02:43;2.07;;;0.97;;
19854;SDS011;10088;47.946;2.532;2022-07-30T12:05:09;3.87;;;0.83;;
19854;SDS011;10088;47.946;2.532;2022-07-30T12:07:35;3.60;;;1.10;;
19854;SDS011;10088;47.946;2.532;2022-07-30T12:10:18;2.93;;;0.90;;
19854;SDS011;10088;47.946;2.532;2022-07-30T12:12:44;3.93;;;1.20;;
19854;SDS011;10088;47.946;2.532;2022-07-30T12:15:10;2.97;;;0.90;;
19854;SDS011;10088;47.946;2.532;2022-07-30T12:17:51;3.33;;;1.00;;
19854;SDS011;10088;47.946;2.532;2022-07-30T12:20:17;3.65;;;0.90;;
19854;SDS011;10088;47.946;2.532;2022-07-30T12:22:43;2.60;;;1.05;;
19854;SDS011;10088;47.946;2.532;2022-07-30T12:25:08;1.77;;;1.25;;
19854;SDS011;10088;47.946;2.532;2022-07-30T12:27:34;2.47;;;1.05;;
19854;SDS011;10088;47.946;2.532;2022-07-30T12:30:00;6.38;;;1.45;;
19854;SDS011;10088;47.946;2.532;2022-07-30T12:32:26;1.65;;;1.02;;
19854;SDS011;10088;47.946;2.532;2022-07-30T12:34:52;2.58;;;1.10;;
19854;SDS011;10088;47.946;2.532;2022-07-30T12:37:18;1.75;;;1.17;;
19854;SDS011;10088;47.946;2.532;2022-07-30T12:39:43;1.40;;;0.87;;
19854;SDS011;10088;47.946;2.532;2022-07-30T12:42:16;3.20;;;0.95;;
19854;SDS011;10088;47.946;2.532;2022-07-30T12:44:41;4.17;;;0.83;;
19854;SDS011;10088;47.946;2.532;2022-07-30T12:47:19;2.20;;;0.93;;
19854;SDS011;10088;47.946;2.532;2022-07-30T12:49:44;5.90;;;0.90;;
19854;SDS011;10088;47.946;2.532;2022-07-30T12:52:09;4.27;;;1.40;;
19854;SDS011;10088;47.946;2.532;2022-07-30T12:54:43;2.03;;;1.00;;
19854;SDS011;10088;47.946;2.532;2022-07-30T12:57:09;2.17;;;1.03;;
19854;SDS011;10088;47.946;2.532;2022-07-30T12:59:34;3.77;;;0.80;;
19854;SDS011;10088;47.946;2.532;2022-07-30T13:02:00;2.03;;;0.77;;
19854;SDS011;10088;47.946;2.532;2022-07-30T13:04:26;2.57;;;1.00;;
19854;SDS011;10088;47.946;2.532;2022-07-30T13:07:01;2.77;;;1.00;;
19854;SDS011;10088;47.946;2.532;2022-07-30T13:09:27;2.03;;;1.20;;
19854;SDS011;10088;47.946;2.532;2022-07-30T13:11:52;2.50;;;0.90;;
19854;SDS011;10088;47.946;2.532;2022-07-30T13:14:17;2.63;;;1.00;;
19854;SDS011;10088;47.946;2.532;2022-07-30T13:16:43;4.03;;;1.20;;
19854;SDS011;10088;47.946;2.532;2022-07-30T13:19:09;3.77;;;1.00;;
19854;SDS011;10088;47.946;2.532;2022-07-30T13:21:38;1.13;;;1.03;;
19854;SDS011;10088;47.946;2.532;2022-07-30T13:24:03;1.27;;;0.90;;
19854;SDS011;10088;47.946;2.532;2022-07-30T13:26:29;2.38;;;1.30;;
19854;SDS011;10088;47.946;2.532;2022-07-30T13:28:55;3.78;;;1.20;;
19854;SDS011;10088;47.946;2.532;2022-07-30T13:31:20;2.38;;;0.77;;
19854;SDS011;10088;47.946;2.532;2022-07-30T13:33:46;2.33;;;1.13;;
19854;SDS011;10088;47.946;2.532;2022-07-30T13:36:11;3.08;;;1.58;;
19854;SDS011;10088;47.946;2.532;2022-07-30T13:38:36;3.63;;;1.02;;
19854;SDS011;10088;47.946;2.532;2022-07-30T13:41:03;5.70;;;1.33;;
19854;SDS011;10088;47.946;2.532;2022-07-30T13:43:28;5.20;;;1.10;;
19854;SDS011;10088;47.946;2.532;2022-07-30T13:45:54;3.47;;;1.10;;
19854;SDS011;10088;47.946;2.532;2022-07-30T13:48:19;3.03;;;1.20;;
19854;SDS011;10088;47.946;2.532;2022-07-30T13:50:44;2.92;;;1.33;;
19854;SDS011;10088;47.946;2.532;2022-07-30T13:53:10;3.35;;;1.17;;
19854;SDS011;10088;47.946;2.532;2022-07-30T13:55:36;2.47;;;1.10;;
19854;SDS011;10088;47.946;2.532;2022-07-30T13:58:02;2.58;;;1.00;;
19854;SDS011;10088;47.946;2.532;2022-07-30T14:00:27;1.90;;;1.38;;
19854;SDS011;10088;47.946;2.532;2022-07-30T14:03:00;1.58;;;0.95;;
19854;SDS011;10088;47.946;2.532;2022-07-30T14:05:25;3.53;;;1.00;;
19854;SDS011;10088;47.946;2.532;2022-07-30T14:07:50;3.95;;;1.02;;
19854;SDS011;10088;47.946;2.532;2022-07-30T14:10:16;3.05;;;1.20;;
19854;SDS011;10088;47.946;2.532;2022-07-30T14:12:41;5.10;;;1.13;;
19854;SDS011;10088;47.946;2.532;2022-07-30T14:15:07;0.80;;;0.75;;
19854;SDS011;10088;47.946;2.532;2022-07-30T14:17:33;1.20;;;0.80;;
19854;SDS011;10088;47.946;2.532;2022-07-30T14:19:58;2.43;;;1.20;;
19854;SDS011;10088;47.946;2.532;2022-07-30T14:22:24;3.45;;;0.80;;
19854;SDS011;10088;47.946;2.532;2022-07-30T14:24:49;3.85;;;1.40;;
19854;SDS011;10088;47.946;2.532;2022-07-30T14:27:14;2.50;;;1.20;;
19854;SDS011;10088;47.946;2.532;2022-07-30T14:29:42;3.43;;;1.20;;
19854;SDS011;10088;47.946;2.532;2022-07-30T14:32:07;4.27;;;1.10;;
19854;SDS011;10088;47.946;2.532;2022-07-30T14:34:32;1.50;;;1.00;;
19854;SDS011;10088;47.946;2.532;2022-07-30T14:36:58;2.27;;;1.00;;
19854;SDS011;10088;47.946;2.532;2022-07-30T14:39:23;3.90;;;0.90;;
19854;SDS011;10088;47.946;2.532;2022-07-30T14:41:49;3.90;;;1.00;;
19854;SDS011;10088;47.946;2.532;2022-07-30T14:44:14;4.60;;;1.10;;
19854;SDS011;10088;47.946;2.532;2022-07-30T14:46:39;2.73;;;1.00;;
19854;SDS011;10088;47.946;2.532;2022-07-30T14:49:05;2.30;;;1.07;;
19854;SDS011;10088;47.946;2.532;2022-07-30T14:51:30;1.83;;;1.03;;
19854;SDS011;10088;47.946;2.532;2022-07-30T14:53:56;5.70;;;1.70;;
19854;SDS011;10088;47.946;2.532;2022-07-30T14:56:21;3.00;;;1.10;;
19854;SDS011;10088;47.946;2.532;2022-07-30T14:58:48;2.90;;;0.87;;
19854;SDS011;10088;47.946;2.532;2022-07-30T15:01:13;2.70;;;1.00;;
19854;SDS011;10088;47.946;2.532;2022-07-30T15:03:38;3.57;;;1.07;;
19854;SDS011;10088;47.946;2.532;2022-07-30T15:06:03;6.90;;;1.07;;
19854;SDS011;10088;47.946;2.532;2022-07-30T15:08:29;3.80;;;1.07;;
19854;SDS011;10088;47.946;2.532;2022-07-30T15:10:54;1.77;;;0.90;;
19854;SDS011;10088;47.946;2.532;2022-07-30T15:13:19;4.70;;;1.07;;
19854;SDS011;10088;47.946;2.532;2022-07-30T15:15:45;1.27;;;0.90;;
19854;SDS011;10088;47.946;2.532;2022-07-30T15:18:10;2.00;;;1.10;;
19854;SDS011;10088;47.946;2.532;2022-07-30T15:20:36;4.47;;;0.90;;